sensor_id;sensor_type;location;lat;lon;timestamp;pressure;altitude;pressure_sealevel;temperature;humidity
32873;BME280;19224;52.462;16.898;2022-12-29T00:01:19;99729.69;;;7.65;100.00
32873;BME280;19224;52.462;16.898;2022-12-29T00:03:50;99716.30;;;7.65;100.00
32873;BME280;19224;52.462;16.898;2022-12-29T00:06:20;99724.14;;;7.70;100.00
32873;BME280;19224;52.462;16.898;2022-12-29T00:08:52;99717.39;;;7.71;100.00
32873;BME280;19224;52.462;16.898;2022-12-29T00:11:25;99713.37;;;7.71;100.00
32873;BME280;19224;52.462;16.898;2022-12-29T00:13:56;99708.02;;;7.71;100.00
32873;BME280;19224;52.462;16.898;2022-12-29T00:16:45;99712.57;;;7.69;100.00
32873;BME280;19224;52.462;16.898;2022-12-29T00:19:16;99703.78;;;7.66;100.00
32873;BME280;19224;52.462;16.898;2022-12-29T00:22:04;99701.16;;;7.64;100.00
32873;BME280;19224;52.462;16.898;2022-12-29T00:24:52;99692.72;;;7.63;100.00
32873;BME280;19224;52.462;16.898;2022-12-29T00:27:22;99684.37;;;7.61;100.00
32873;BME280;19224;52.462;16.898;2022-12-29T00:30:15;99683.62;;;7.57;100.00
32873;BME280;19224;52.462;16.898;2022-12-29T00:33:19;99681.34;;;7.58;100.00
32873;BME280;19224;52.462;16.898;2022-12-29T00:36:33;99682.38;;;7.54;100.00
32873;BME280;19224;52.462;16.898;2022-12-29T00:39:12;99685.50;;;7.55;100.00
32873;BME280;19224;52.462;16.898;2022-12-29T00:42:08;99677.97;;;7.53;100.00
32873;BME280;19224;52.462;16.898;2022-12-29T00:44:56;99677.16;;;7.51;100.00
32873;BME280;19224;52.462;16.898;2022-12-29T00:47:26;99668.19;;;7.52;100.00
32873;BME280;19224;52.462;16.898;2022-12-29T00:49:57;99672.91;;;7.57;100.00
32873;BME280;19224;52.462;16.898;2022-12-29T00:52:28;99666.46;;;7.61;100.00
32873;BME280;19224;52.462;16.898;2022-12-29T00:54:58;99668.89;;;7.67;100.00
32873;BME280;19224;52.462;16.898;2022-12-29T00:57:29;99655.95;;;7.67;100.00
32873;BME280;19224;52.462;16.898;2022-12-29T01:00:00;99650.39;;;7.71;100.00
32873;BME280;19224;52.462;16.898;2022-12-29T01:02:31;99650.25;;;7.74;100.00
32873;BME280;19224;52.462;16.898;2022-12-29T01:05:01;99654.12;;;7.77;100.00
32873;BME280;19224;52.462;16.898;2022-12-29T01:07:32;99654.95;;;7.79;100.00
32873;BME280;19224;52.462;16.898;2022-12-29T01:10:03;99652.67;;;7.80;100.00
32873;BME280;19224;52.462;16.898;2022-12-29T01:12:40;99650.80;;;7.82;100.00
32873;BME280;19224;52.462;16.898;2022-12-29T01:15:13;99646.38;;;7.81;100.00
32873;BME280;19224;52.462;16.898;2022-12-29T01:17:44;99658.29;;;7.84;100.00
32873;BME280;19224;52.462;16.898;2022-12-29T01:20:15;99648.37;;;7.86;100.00
32873;BME280;19224;52.462;16.898;2022-12-29T01:22:46;99645.63;;;7.88;100.00
32873;BME280;19224;52.462;16.898;2022-12-29T01:25:17;99652.78;;;7.87;100.00
32873;BME280;19224;52.462;16.898;2022-12-29T01:27:48;99644.63;;;7.90;100.00
32873;BME280;19224;52.462;16.898;2022-12-29T01:30:18;99637.94;;;7.90;100.00
32873;BME280;19224;52.462;16.898;2022-12-29T01:32:49;99636.98;;;7.91;100.00
32873;BME280;19224;52.462;16.898;2022-12-29T01:35:19;99630.14;;;7.94;100.00
32873;BME280;19224;52.462;16.898;2022-12-29T01:37:50;99635.90;;;7.95;100.00
32873;BME280;19224;52.462;16.898;2022-12-29T01:40:20;99631.54;;;7.93;100.00
32873;BME280;19224;52.462;16.898;2022-12-29T01:42:51;99633.77;;;7.93;100.00
32873;BME280;19224;52.462;16.898;2022-12-29T01:45:22;99631.08;;;7.93;100.00
32873;BME280;19224;52.462;16.898;2022-12-29T01:47:59;99632.37;;;7.95;100.00
32873;BME280;19224;52.462;16.898;2022-12-29T01:50:33;99637.73;;;7.95;100.00
32873;BME280;19224;52.462;16.898;2022-12-29T01:53:25;99634.02;;;7.97;100.00
32873;BME280;19224;52.462;16.898;2022-12-29T01:56:02;99622.89;;;7.96;100.00
32873;BME280;19224;52.462;16.898;2022-12-29T01:58:36;99614.70;;;7.99;100.00
32873;BME280;19224;52.462;16.898;2022-12-29T02:01:07;99610.17;;;8.01;100.00
32873;BME280;19224;52.462;16.898;2022-12-29T02:03:38;99601.18;;;8.02;100.00
32873;BME280;19224;52.462;16.898;2022-12-29T02:06:29;99597.56;;;8.03;100.00
32873;BME280;19224;52.462;16.898;2022-12-29T02:09:01;99592.59;;;8.04;100.00
32873;BME280;19224;52.462;16.898;2022-12-29T02:11:32;99583.05;;;8.07;100.00
32873;BME280;19224;52.462;16.898;2022-12-29T02:14:13;99589.70;;;8.09;100.00
32873;BME280;19224;52.462;16.898;2022-12-29T02:20:26;99597.26;;;8.09;100.00
32873;BME280;19224;52.462;16.898;2022-12-29T02:23:19;99592.30;;;8.10;100.00
32873;BME280;19224;52.462;16.898;2022-12-29T02:26:14;99584.80;;;8.08;100.00
32873;BME280;19224;52.462;16.898;2022-12-29T02:31:44;99576.66;;;8.01;100.00
32873;BME280;19224;52.462;16.898;2022-12-29T02:34:38;99582.53;;;7.99;100.00
32873;BME280;19224;52.462;16.898;2022-12-29T02:43:24;99576.13;;;7.93;100.00
32873;BME280;19224;52.462;16.898;2022-12-29T02:46:21;99576.98;;;7.94;100.00
32873;BME280;19224;52.462;16.898;2022-12-29T02:49:09;99564.61;;;7.91;100.00
32873;BME280;19224;52.462;16.898;2022-12-29T02:51:34;99560.25;;;7.89;100.00
32873;BME280;19224;52.462;16.898;2022-12-29T02:54:05;99562.04;;;7.88;100.00
32873;BME280;19224;52.462;16.898;2022-12-29T02:56:53;99544.22;;;7.87;100.00
32873;BME280;19224;52.462;16.898;2022-12-29T02:59:24;99550.61;;;7.85;100.00
32873;BME280;19224;52.462;16.898;2022-12-29T03:11:14;99545.38;;;7.82;100.00
32873;BME280;19224;52.462;16.898;2022-12-29T03:13:47;99535.38;;;7.85;100.00
32873;BME280;19224;52.462;16.898;2022-12-29T03:19:26;99531.78;;;7.76;100.00
32873;BME280;19224;52.462;16.898;2022-12-29T03:22:07;99532.52;;;7.80;100.00
32873;BME280;19224;52.462;16.898;2022-12-29T03:25:05;99541.50;;;7.79;100.00
32873;BME280;19224;52.462;16.898;2022-12-29T03:27:38;99541.25;;;7.75;100.00
32873;BME280;19224;52.462;16.898;2022-12-29T03:30:10;99540.91;;;7.72;100.00
32873;BME280;19224;52.462;16.898;2022-12-29T03:32:56;99539.97;;;7.73;100.00
32873;BME280;19224;52.462;16.898;2022-12-29T03:35:31;99543.98;;;7.73;100.00
32873;BME280;19224;52.462;16.898;2022-12-29T03:41:04;99544.59;;;7.70;100.00
32873;BME280;19224;52.462;16.898;2022-12-29T03:43:34;99541.06;;;7.69;100.00
32873;BME280;19224;52.462;16.898;2022-12-29T03:46:06;99540.66;;;7.68;100.00
32873;BME280;19224;52.462;16.898;2022-12-29T03:48:36;99542.40;;;7.69;100.00
32873;BME280;19224;52.462;16.898;2022-12-29T03:51:07;99540.66;;;7.68;100.00
32873;BME280;19224;52.462;16.898;2022-12-29T03:53:38;99533.83;;;7.61;100.00
32873;BME280;19224;52.462;16.898;2022-12-29T03:56:08;99532.55;;;7.60;100.00
32873;BME280;19224;52.462;16.898;2022-12-29T03:58:39;99528.61;;;7.58;100.00
32873;BME280;19224;52.462;16.898;2022-12-29T04:01:10;99526.39;;;7.58;100.00
32873;BME280;19224;52.462;16.898;2022-12-29T04:03:41;99531.63;;;7.61;100.00
32873;BME280;19224;52.462;16.898;2022-12-29T04:06:11;99523.51;;;7.62;100.00
32873;BME280;19224;52.462;16.898;2022-12-29T04:08:42;99522.56;;;7.63;100.00
32873;BME280;19224;52.462;16.898;2022-12-29T04:11:12;99517.20;;;7.63;100.00
32873;BME280;19224;52.462;16.898;2022-12-29T04:13:43;99514.32;;;7.68;100.00
32873;BME280;19224;52.462;16.898;2022-12-29T04:16:13;99506.67;;;7.69;100.00
32873;BME280;19224;52.462;16.898;2022-12-29T04:18:44;99499.83;;;7.72;100.00
32873;BME280;19224;52.462;16.898;2022-12-29T04:21:15;99495.35;;;7.72;100.00
32873;BME280;19224;52.462;16.898;2022-12-29T04:23:45;99493.56;;;7.73;100.00
32873;BME280;19224;52.462;16.898;2022-12-29T04:26:16;99496.94;;;7.76;100.00
32873;BME280;19224;52.462;16.898;2022-12-29T04:28:46;99497.13;;;7.82;100.00
32873;BME280;19224;52.462;16.898;2022-12-29T04:31:17;99499.29;;;7.84;100.00
32873;BME280;19224;52.462;16.898;2022-12-29T04:33:48;99502.42;;;7.83;100.00
32873;BME280;19224;52.462;16.898;2022-12-29T04:36:18;99504.50;;;7.87;100.00
32873;BME280;19224;52.462;16.898;2022-12-29T04:38:49;99504.95;;;7.86;100.00
32873;BME280;19224;52.462;16.898;2022-12-29T04:41:19;99511.66;;;7.86;100.00
32873;BME280;19224;52.462;16.898;2022-12-29T04:43:50;99507.91;;;7.90;100.00
32873;BME280;19224;52.462;16.898;2022-12-29T04:46:21;99507.77;;;7.93;100.00
32873;BME280;19224;52.462;16.898;2022-12-29T04:48:52;99502.64;;;7.97;100.00
32873;BME280;19224;52.462;16.898;2022-12-29T04:51:22;99495.00;;;7.98;100.00
32873;BME280;19224;52.462;16.898;2022-12-29T04:53:53;99500.30;;;8.00;100.00
32873;BME280;19224;52.462;16.898;2022-12-29T04:56:24;99490.86;;;8.01;100.00
32873;BME280;19224;52.462;16.898;2022-12-29T04:58:55;99495.17;;;8.04;100.00
32873;BME280;19224;52.462;16.898;2022-12-29T05:01:25;99486.73;;;8.03;100.00
32873;BME280;19224;52.462;16.898;2022-12-29T05:03:56;99485.80;;;8.04;100.00
32873;BME280;19224;52.462;16.898;2022-12-29T05:06:26;99480.43;;;8.04;100.00
32873;BME280;19224;52.462;16.898;2022-12-29T05:08:57;99476.02;;;8.03;100.00
32873;BME280;19224;52.462;16.898;2022-12-29T05:11:27;99463.50;;;8.03;100.00
32873;BME280;19224;52.462;16.898;2022-12-29T05:13:58;99460.48;;;8.01;100.00
32873;BME280;19224;52.462;16.898;2022-12-29T05:16:28;99462.43;;;7.97;100.00
32873;BME280;19224;52.462;16.898;2022-12-29T05:18:59;99457.86;;;7.99;100.00
32873;BME280;19224;52.462;16.898;2022-12-29T05:21:29;99445.95;;;7.96;100.00
32873;BME280;19224;52.462;16.898;2022-12-29T05:24:00;99439.34;;;7.95;100.00
32873;BME280;19224;52.462;16.898;2022-12-29T05:26:31;99435.53;;;7.90;100.00
32873;BME280;19224;52.462;16.898;2022-12-29T05:29:02;99432.19;;;7.85;100.00
32873;BME280;19224;52.462;16.898;2022-12-29T05:31:32;99427.83;;;7.83;100.00
32873;BME280;19224;52.462;16.898;2022-12-29T05:34:04;99426.44;;;7.84;100.00
32873;BME280;19224;52.462;16.898;2022-12-29T05:36:35;99429.51;;;7.85;100.00
32873;BME280;19224;52.462;16.898;2022-12-29T05:39:06;99433.86;;;7.88;100.00
32873;BME280;19224;52.462;16.898;2022-12-29T05:41:36;99433.25;;;7.91;100.00
32873;BME280;19224;52.462;16.898;2022-12-29T05:44:07;99428.52;;;7.96;100.00
32873;BME280;19224;52.462;16.898;2022-12-29T05:46:38;99431.94;;;8.00;100.00
32873;BME280;19224;52.462;16.898;2022-12-29T05:49:09;99423.67;;;8.04;100.00
32873;BME280;19224;52.462;16.898;2022-12-29T05:51:39;99426.59;;;8.08;100.00
32873;BME280;19224;52.462;16.898;2022-12-29T05:54:10;99431.34;;;8.12;100.00
32873;BME280;19224;52.462;16.898;2022-12-29T05:56:41;99416.82;;;8.16;100.00
32873;BME280;19224;52.462;16.898;2022-12-29T05:59:12;99415.84;;;8.18;100.00
32873;BME280;19224;52.462;16.898;2022-12-29T06:01:42;99410.26;;;8.23;100.00
32873;BME280;19224;52.462;16.898;2022-12-29T06:04:13;99416.34;;;8.26;100.00
32873;BME280;19224;52.462;16.898;2022-12-29T06:06:43;99420.38;;;8.26;100.00
32873;BME280;19224;52.462;16.898;2022-12-29T06:09:14;99423.91;;;8.27;100.00
32873;BME280;19224;52.462;16.898;2022-12-29T06:11:45;99433.62;;;8.29;100.00
32873;BME280;19224;52.462;16.898;2022-12-29T06:14:15;99439.77;;;8.31;100.00
32873;BME280;19224;52.462;16.898;2022-12-29T06:16:46;99445.47;;;8.34;100.00
32873;BME280;19224;52.462;16.898;2022-12-29T06:19:16;99442.23;;;8.36;100.00
32873;BME280;19224;52.462;16.898;2022-12-29T06:21:47;99446.74;;;8.35;100.00
32873;BME280;19224;52.462;16.898;2022-12-29T06:24:17;99440.33;;;8.38;100.00
32873;BME280;19224;52.462;16.898;2022-12-29T06:26:48;99431.83;;;8.38;100.00
32873;BME280;19224;52.462;16.898;2022-12-29T06:29:19;99440.77;;;8.39;100.00
32873;BME280;19224;52.462;16.898;2022-12-29T06:32:09;99439.81;;;8.40;100.00
32873;BME280;19224;52.462;16.898;2022-12-29T06:34:39;99450.45;;;8.41;100.00
32873;BME280;19224;52.462;16.898;2022-12-29T06:37:10;99449.11;;;8.41;100.00
32873;BME280;19224;52.462;16.898;2022-12-29T06:39:42;99458.83;;;8.44;100.00
32873;BME280;19224;52.462;16.898;2022-12-29T06:42:13;99450.84;;;8.42;100.00
32873;BME280;19224;52.462;16.898;2022-12-29T06:44:43;99455.20;;;8.45;100.00
32873;BME280;19224;52.462;16.898;2022-12-29T06:47:14;99451.56;;;8.46;100.00
32873;BME280;19224;52.462;16.898;2022-12-29T06:49:44;99438.48;;;8.48;100.00
32873;BME280;19224;52.462;16.898;2022-12-29T06:52:15;99437.86;;;8.52;100.00
32873;BME280;19224;52.462;16.898;2022-12-29T06:54:46;99438.70;;;8.52;100.00
32873;BME280;19224;52.462;16.898;2022-12-29T06:57:16;99441.88;;;8.52;100.00
32873;BME280;19224;52.462;16.898;2022-12-29T06:59:47;99451.57;;;8.54;100.00
32873;BME280;19224;52.462;16.898;2022-12-29T07:02:18;99443.78;;;8.58;100.00
32873;BME280;19224;52.462;16.898;2022-12-29T07:04:49;99449.15;;;8.58;100.00
32873;BME280;19224;52.462;16.898;2022-12-29T07:07:20;99452.13;;;8.61;100.00
32873;BME280;19224;52.462;16.898;2022-12-29T07:09:51;99453.73;;;8.65;100.00
32873;BME280;19224;52.462;16.898;2022-12-29T07:12:21;99451.38;;;8.67;100.00
32873;BME280;19224;52.462;16.898;2022-12-29T07:14:52;99456.09;;;8.71;100.00
32873;BME280;19224;52.462;16.898;2022-12-29T07:17:22;99461.78;;;8.73;100.00
32873;BME280;19224;52.462;16.898;2022-12-29T07:19:53;99461.72;;;8.75;100.00
32873;BME280;19224;52.462;16.898;2022-12-29T07:22:23;99455.73;;;8.78;100.00
32873;BME280;19224;52.462;16.898;2022-12-29T07:24:54;99458.80;;;8.79;100.00
32873;BME280;19224;52.462;16.898;2022-12-29T07:27:24;99459.20;;;8.80;100.00
32873;BME280;19224;52.462;16.898;2022-12-29T07:29:55;99452.38;;;8.82;100.00
32873;BME280;19224;52.462;16.898;2022-12-29T07:32:26;99450.35;;;8.87;100.00
32873;BME280;19224;52.462;16.898;2022-12-29T07:34:56;99448.06;;;8.88;100.00
32873;BME280;19224;52.462;16.898;2022-12-29T07:37:27;99447.67;;;8.87;100.00
32873;BME280;19224;52.462;16.898;2022-12-29T07:39:57;99451.07;;;8.90;100.00
32873;BME280;19224;52.462;16.898;2022-12-29T07:42:28;99451.69;;;8.95;100.00
32873;BME280;19224;52.462;16.898;2022-12-29T07:44:59;99444.02;;;8.96;100.00
32873;BME280;19224;52.462;16.898;2022-12-29T07:47:31;99445.20;;;8.99;100.00
32873;BME280;19224;52.462;16.898;2022-12-29T07:50:01;99440.64;;;9.01;100.00
32873;BME280;19224;52.462;16.898;2022-12-29T07:52:32;99440.64;;;9.01;100.00
32873;BME280;19224;52.462;16.898;2022-12-29T07:55:03;99446.54;;;8.99;100.00
32873;BME280;19224;52.462;16.898;2022-12-29T07:57:33;99452.73;;;9.01;100.00
32873;BME280;19224;52.462;16.898;2022-12-29T08:00:05;99453.58;;;9.02;100.00
32873;BME280;19224;52.462;16.898;2022-12-29T08:02:36;99458.00;;;9.03;100.00
32873;BME280;19224;52.462;16.898;2022-12-29T08:05:08;99441.65;;;9.07;100.00
32873;BME280;19224;52.462;16.898;2022-12-29T08:07:38;99442.82;;;9.10;100.00
32873;BME280;19224;52.462;16.898;2022-12-29T08:10:11;99435.97;;;9.13;100.00
32873;BME280;19224;52.462;16.898;2022-12-29T08:12:43;99437.07;;;9.18;100.00
32873;BME280;19224;52.462;16.898;2022-12-29T08:15:13;99443.22;;;9.20;100.00
32873;BME280;19224;52.462;16.898;2022-12-29T08:17:44;99445.28;;;9.23;100.00
32873;BME280;19224;52.462;16.898;2022-12-29T08:20:15;99456.25;;;9.27;100.00
32873;BME280;19224;52.462;16.898;2022-12-29T08:22:45;99447.38;;;9.34;100.00
32873;BME280;19224;52.462;16.898;2022-12-29T08:25:16;99461.53;;;9.37;100.00
32873;BME280;19224;52.462;16.898;2022-12-29T08:27:49;99457.30;;;9.48;100.00
32873;BME280;19224;52.462;16.898;2022-12-29T08:30:19;99457.05;;;9.53;100.00
32873;BME280;19224;52.462;16.898;2022-12-29T08:32:50;99464.42;;;9.58;100.00
32873;BME280;19224;52.462;16.898;2022-12-29T08:35:20;99455.40;;;9.59;100.00
32873;BME280;19224;52.462;16.898;2022-12-29T08:37:51;99453.48;;;9.61;100.00
32873;BME280;19224;52.462;16.898;2022-12-29T08:40:22;99459.75;;;9.61;100.00
32873;BME280;19224;52.462;16.898;2022-12-29T08:42:53;99456.95;;;9.63;100.00
32873;BME280;19224;52.462;16.898;2022-12-29T08:45:24;99460.03;;;9.64;100.00
32873;BME280;19224;52.462;16.898;2022-12-29T08:47:54;99462.16;;;9.66;100.00
32873;BME280;19224;52.462;16.898;2022-12-29T08:50:25;99462.58;;;9.67;100.00
32873;BME280;19224;52.462;16.898;2022-12-29T08:52:56;99465.80;;;9.65;100.00
32873;BME280;19224;52.462;16.898;2022-12-29T08:55:26;99459.64;;;9.63;100.00
32873;BME280;19224;52.462;16.898;2022-12-29T08:57:57;99453.24;;;9.65;100.00
32873;BME280;19224;52.462;16.898;2022-12-29T09:00:27;99461.23;;;9.67;100.00
32873;BME280;19224;52.462;16.898;2022-12-29T09:02:58;99461.84;;;9.72;100.00
32873;BME280;19224;52.462;16.898;2022-12-29T09:05:28;99464.73;;;9.76;100.00
32873;BME280;19224;52.462;16.898;2022-12-29T09:07:59;99463.33;;;9.77;100.00
32873;BME280;19224;52.462;16.898;2022-12-29T09:10:29;99458.73;;;9.79;100.00
32873;BME280;19224;52.462;16.898;2022-12-29T09:13:00;99457.05;;;9.85;100.00
32873;BME280;19224;52.462;16.898;2022-12-29T09:15:30;99444.70;;;9.90;100.00
32873;BME280;19224;52.462;16.898;2022-12-29T09:18:01;99449.27;;;9.96;100.00
32873;BME280;19224;52.462;16.898;2022-12-29T09:20:32;99450.28;;;10.02;100.00
32873;BME280;19224;52.462;16.898;2022-12-29T09:23:03;99449.84;;;10.10;100.00
32873;BME280;19224;52.462;16.898;2022-12-29T09:25:35;99440.17;;;10.14;100.00
32873;BME280;19224;52.462;16.898;2022-12-29T09:28:06;99444.72;;;10.21;100.00
32873;BME280;19224;52.462;16.898;2022-12-29T09:30:37;99453.03;;;10.25;100.00
32873;BME280;19224;52.462;16.898;2022-12-29T09:33:10;99452.85;;;10.28;100.00
32873;BME280;19224;52.462;16.898;2022-12-29T09:35:45;99438.64;;;10.33;100.00
32873;BME280;19224;52.462;16.898;2022-12-29T09:38:16;99457.14;;;10.39;100.00
32873;BME280;19224;52.462;16.898;2022-12-29T09:40:53;99445.03;;;10.39;100.00
32873;BME280;19224;52.462;16.898;2022-12-29T09:46:45;99437.55;;;10.44;100.00
32873;BME280;19224;52.462;16.898;2022-12-29T09:52:22;99430.37;;;10.67;100.00
32873;BME280;19224;52.462;16.898;2022-12-29T09:55:04;99432.95;;;10.61;100.00
32873;BME280;19224;52.462;16.898;2022-12-29T09:57:59;99437.06;;;10.60;100.00
32873;BME280;19224;52.462;16.898;2022-12-29T10:03:50;99431.86;;;10.57;100.00
32873;BME280;19224;52.462;16.898;2022-12-29T10:09:31;99430.14;;;10.63;100.00
32873;BME280;19224;52.462;16.898;2022-12-29T10:24:22;99422.37;;;10.95;100.00
32873;BME280;19224;52.462;16.898;2022-12-29T10:26:54;99411.78;;;10.99;100.00
32873;BME280;19224;52.462;16.898;2022-12-29T10:29:36;99410.27;;;11.09;100.00
32873;BME280;19224;52.462;16.898;2022-12-29T10:32:22;99415.30;;;11.15;100.00
32873;BME280;19224;52.462;16.898;2022-12-29T10:34:57;99420.02;;;11.18;100.00
32873;BME280;19224;52.462;16.898;2022-12-29T10:37:37;99416.47;;;11.25;100.00
32873;BME280;19224;52.462;16.898;2022-12-29T10:40:22;99421.58;;;11.29;100.00
32873;BME280;19224;52.462;16.898;2022-12-29T10:42:54;99417.64;;;11.35;99.26
32873;BME280;19224;52.462;16.898;2022-12-29T10:45:28;99416.09;;;11.38;99.11
32873;BME280;19224;52.462;16.898;2022-12-29T10:48:08;99409.45;;;11.43;98.82
32873;BME280;19224;52.462;16.898;2022-12-29T10:50:38;99410.30;;;11.44;98.75
32873;BME280;19224;52.462;16.898;2022-12-29T10:53:21;99400.13;;;11.35;99.04
32873;BME280;19224;52.462;16.898;2022-12-29T10:55:52;99404.83;;;11.31;99.25
32873;BME280;19224;52.462;16.898;2022-12-29T10:58:24;99402.13;;;11.31;99.95
32873;BME280;19224;52.462;16.898;2022-12-29T11:00:55;99400.28;;;11.32;98.98
32873;BME280;19224;52.462;16.898;2022-12-29T11:03:48;99393.17;;;11.38;99.36
32873;BME280;19224;52.462;16.898;2022-12-29T11:06:27;99396.82;;;11.44;98.55
32873;BME280;19224;52.462;16.898;2022-12-29T11:09:15;99386.34;;;11.46;98.50
32873;BME280;19224;52.462;16.898;2022-12-29T11:11:46;99381.23;;;11.49;98.43
32873;BME280;19224;52.462;16.898;2022-12-29T11:14:30;99374.88;;;11.50;98.56
32873;BME280;19224;52.462;16.898;2022-12-29T11:17:03;99379.89;;;11.49;98.30
32873;BME280;19224;52.462;16.898;2022-12-29T11:19:34;99371.98;;;11.53;98.37
32873;BME280;19224;52.462;16.898;2022-12-29T11:22:21;99369.58;;;11.55;98.16
32873;BME280;19224;52.462;16.898;2022-12-29T11:24:53;99365.28;;;11.60;98.46
32873;BME280;19224;52.462;16.898;2022-12-29T11:27:26;99365.84;;;11.65;98.49
32873;BME280;19224;52.462;16.898;2022-12-29T11:29:56;99363.15;;;11.72;97.96
32873;BME280;19224;52.462;16.898;2022-12-29T11:32:29;99382.80;;;11.81;97.03
32873;BME280;19224;52.462;16.898;2022-12-29T11:35:00;99371.97;;;11.88;96.94
32873;BME280;19224;52.462;16.898;2022-12-29T11:37:41;99369.27;;;11.94;96.41
32873;BME280;19224;52.462;16.898;2022-12-29T11:40:20;99369.45;;;11.98;95.92
32873;BME280;19224;52.462;16.898;2022-12-29T11:43:00;99368.47;;;12.06;95.81
32873;BME280;19224;52.462;16.898;2022-12-29T11:45:36;99368.26;;;12.09;95.16
32873;BME280;19224;52.462;16.898;2022-12-29T11:48:21;99364.51;;;12.05;96.21
32873;BME280;19224;52.462;16.898;2022-12-29T11:50:55;99369.27;;;12.01;96.66
32873;BME280;19224;52.462;16.898;2022-12-29T11:53:41;99358.65;;;11.98;96.51
32873;BME280;19224;52.462;16.898;2022-12-29T11:56:17;99357.42;;;11.97;96.73
32873;BME280;19224;52.462;16.898;2022-12-29T11:58:49;99358.77;;;11.97;96.94
32873;BME280;19224;52.462;16.898;2022-12-29T12:01:35;99364.34;;;11.94;97.39
32873;BME280;19224;52.462;16.898;2022-12-29T12:04:21;99365.23;;;11.88;97.88
32873;BME280;19224;52.462;16.898;2022-12-29T12:07:12;99361.39;;;11.85;97.34
32873;BME280;19224;52.462;16.898;2022-12-29T12:09:57;99360.42;;;11.86;97.66
32873;BME280;19224;52.462;16.898;2022-12-29T12:12:55;99358.69;;;11.85;98.12
32873;BME280;19224;52.462;16.898;2022-12-29T12:15:42;99360.16;;;11.83;97.62
32873;BME280;19224;52.462;16.898;2022-12-29T12:21:32;99352.53;;;11.83;97.55
32873;BME280;19224;52.462;16.898;2022-12-29T12:30:16;99352.15;;;11.89;97.60
32873;BME280;19224;52.462;16.898;2022-12-29T12:32:58;99350.01;;;11.87;97.22
32873;BME280;19224;52.462;16.898;2022-12-29T12:39:00;99349.45;;;11.89;97.86
32873;BME280;19224;52.462;16.898;2022-12-29T12:44:37;99339.68;;;11.93;98.11
32873;BME280;19224;52.462;16.898;2022-12-29T12:47:19;99339.38;;;11.97;97.67
32873;BME280;19224;52.462;16.898;2022-12-29T12:53:08;99340.94;;;12.01;98.04
32873;BME280;19224;52.462;16.898;2022-12-29T13:01:38;99352.06;;;12.09;98.27
32873;BME280;19224;52.462;16.898;2022-12-29T13:04:52;99350.63;;;12.11;97.95
32873;BME280;19224;52.462;16.898;2022-12-29T13:10:47;99355.00;;;12.26;97.12
32873;BME280;19224;52.462;16.898;2022-12-29T13:22:41;99348.91;;;12.29;95.73
32873;BME280;19224;52.462;16.898;2022-12-29T13:25:47;99348.99;;;12.35;95.78
32873;BME280;19224;52.462;16.898;2022-12-29T13:28:37;99349.38;;;12.36;95.71
32873;BME280;19224;52.462;16.898;2022-12-29T13:31:24;99359.20;;;12.37;95.38
32873;BME280;19224;52.462;16.898;2022-12-29T13:37:10;99376.87;;;12.35;94.90
32873;BME280;19224;52.462;16.898;2022-12-29T13:40:10;99354.15;;;12.25;95.12
32873;BME280;19224;52.462;16.898;2022-12-29T13:42:37;99347.80;;;12.19;95.26
32873;BME280;19224;52.462;16.898;2022-12-29T13:45:15;99354.66;;;12.18;94.95
32873;BME280;19224;52.462;16.898;2022-12-29T13:48:13;99344.93;;;12.15;95.20
32873;BME280;19224;52.462;16.898;2022-12-29T13:50:48;99348.69;;;12.13;94.94
32873;BME280;19224;52.462;16.898;2022-12-29T13:53:41;99347.64;;;12.08;94.95
32873;BME280;19224;52.462;16.898;2022-12-29T13:56:25;99353.84;;;12.03;95.38
32873;BME280;19224;52.462;16.898;2022-12-29T14:01:41;99358.56;;;12.00;95.65
32873;BME280;19224;52.462;16.898;2022-12-29T14:04:27;99356.54;;;11.96;96.07
32873;BME280;19224;52.462;16.898;2022-12-29T14:07:04;99355.31;;;11.95;95.96
32873;BME280;19224;52.462;16.898;2022-12-29T14:09:54;99361.39;;;11.92;96.15
32873;BME280;19224;52.462;16.898;2022-12-29T14:15:16;99356.88;;;11.85;96.82
32873;BME280;19224;52.462;16.898;2022-12-29T14:18:10;99355.23;;;11.83;96.92
32873;BME280;19224;52.462;16.898;2022-12-29T14:20:34;99361.30;;;11.79;96.81
32873;BME280;19224;52.462;16.898;2022-12-29T14:26:09;99365.84;;;11.79;97.21
32873;BME280;19224;52.462;16.898;2022-12-29T14:28:38;99366.90;;;11.76;97.10
32873;BME280;19224;52.462;16.898;2022-12-29T14:37:02;99375.29;;;11.79;97.12
32873;BME280;19224;52.462;16.898;2022-12-29T14:39:42;99375.84;;;11.77;97.24
32873;BME280;19224;52.462;16.898;2022-12-29T14:42:19;99375.84;;;11.77;97.36
32873;BME280;19224;52.462;16.898;2022-12-29T14:45:28;99375.08;;;11.75;97.56
32873;BME280;19224;52.462;16.898;2022-12-29T14:47:59;99375.00;;;11.76;97.87
32873;BME280;19224;52.462;16.898;2022-12-29T14:50:43;99377.98;;;11.72;98.23
32873;BME280;19224;52.462;16.898;2022-12-29T14:56:19;99370.47;;;11.63;98.54
32873;BME280;19224;52.462;16.898;2022-12-29T14:58:57;99373.38;;;11.60;99.01
32873;BME280;19224;52.462;16.898;2022-12-29T15:01:46;99360.05;;;11.50;99.43
32873;BME280;19224;52.462;16.898;2022-12-29T15:04:30;99366.03;;;11.48;99.48
32873;BME280;19224;52.462;16.898;2022-12-29T15:06:59;99371.50;;;11.46;99.50
32873;BME280;19224;52.462;16.898;2022-12-29T15:09:40;99366.61;;;11.46;99.77
32873;BME280;19224;52.462;16.898;2022-12-29T15:14:57;99362.95;;;11.47;99.82
32873;BME280;19224;52.462;16.898;2022-12-29T15:17:33;99369.11;;;11.49;99.58
32873;BME280;19224;52.462;16.898;2022-12-29T15:20:29;99366.33;;;11.50;99.57
32873;BME280;19224;52.462;16.898;2022-12-29T15:23:02;99371.72;;;11.50;99.31
32873;BME280;19224;52.462;16.898;2022-12-29T15:25:33;99368.32;;;11.54;99.09